Ei varoituksia voimassa -

Lähimmät METAR asemat

 

EFPO - Pori (mil/Civ), Finland
Distance from station: PLU 42km
Päivitetty: 19/10/2018 10:50
Selkeätä
Selkeätä
 Wind from LLU
Tuuli: LLU 28 km/h
Lämpötila: 9°C
Wind Chill: 6°C
Kastepiste: 2°C
Kosteus: 62%
Ilmanpaine: 1018 hPa
Yhteenveto: Selkeätä
Visibility: greater than 10 km
2018/10/19 07:50 EFPO 190750Z AUTO 29015KT CAVOK 09/02 Q1018
EFTU - Turku/Abo, Finland
Distance from station: E 68km
Päivitetty: 19/10/2018 10:50
Selkeätä
Selkeätä
 Wind from L
Tuuli: L 15 km/h
Lämpötila: 9°C
Wind Chill: 7°C
Kastepiste: 5°C
Kosteus: 76%
Ilmanpaine: 1019 hPa
Yhteenveto: Selkeätä
Visibility: greater than 10 km
2018/10/19 07:50 EFTU 190750Z AUTO 26008KT CAVOK 09/05 Q1019
 
EFTP - Tampere/Pirkkala, Finland
Distance from station: IKO 84km
Päivitetty: 19/10/2018 10:50
Selkeätä
Selkeätä
 Wind from L
Tuuli: L 17 km/h
Lämpötila: 7°C
Wind Chill: 4°C
Kastepiste: 3°C
Kosteus: 76%
Ilmanpaine: 1017 hPa
Yhteenveto: Selkeätä
Visibility: greater than 10 km
2018/10/19 07:50 EFTP 190750Z 26009KT CAVOK 07/03 Q1017